Terminal Aerodrome Forecast
Issued by NWS Detroit/Pontiac, MI

Home | Current Version | Previous Version | Text Only | Print | Product List | Glossary On
Versions: 1 2 3 4 5 6 7 8 9 10 11 12 13 14 15 16 17 18 19 20 21 22 23 24 25 26 27
000
FTUS43 KDTX 210524
TAFFNT
TAF
KFNT 210524Z 2106/2206 29010KT P6SM SCT040
     FM211100 26007KT P6SM SCT028
     FM211800 23008KT P6SM SCT030
     FM220000 19006KT P6SM BKN150=

USA.gov is the U.S. government's official web portal to all federal, state and local government web resources and services.